PWSweather.com
Personal Weather Stations
Station Observations
SHAHALMS1
Eftra, Falkenberg, HA

EftraFalkenberg, HA

Lat: 56.85, Lon: 12.65

Elevation: 140

Station Type:

http://hem.passagen.se/risarp101

High Low Average
Temperature 65.5°F18.6°C 55.9°F13.3°C 60.1°F15.6°C
Dew Point 60.1°F15.6°C 53.6°F12.0°C 56.6°F13.7°C
Winds 6.1 mph 9.8 kmh Calm Calm 2.0 mph S3.2 kmh S
Wind Gusts 13.6 mph21.9 kmh -- 5.0 mph8.0 kmh
Humidity 96% 76% 89%
Pressure 29.98 in1015.2 mb 29.77 in1008.1 mb -
Precipitation 0.59 in15.0 mm - -
Hour Temp Dew Point Humidity Winds Wind Gusts Pressure Precip Precip Rate Daily Precip Total
12:00 AM 59.4°F15.2°C 56.1°F13.4°C 89% 0.3 mph SE0.5 kmh SE 3.9 mph6.3 kmh 29.89 in1012.2 mb 0.00 in0.0 mm 0.00 in0.0 mm 0.00 in0.0 mm
12:15 AM 59.4°F15.2°C 56.1°F13.4°C 89% Calm Calm 1.4 mph2.3 kmh 29.86 in1011.2 mb 0.00 in0.0 mm 0.00 in0.0 mm 0.00 in0.0 mm
12:31 AM 59.0°F15.0°C 55.8°F13.2°C 89% 1.1 mph NNW1.8 kmh NNW 5.7 mph9.2 kmh 29.86 in1011.2 mb 0.00 in0.0 mm 0.00 in0.0 mm 0.00 in0.0 mm
12:45 AM 59.0°F15.0°C 56.1°F13.4°C 90% 1.8 mph NNW2.9 kmh NNW 8.6 mph13.8 kmh 29.86 in1011.2 mb 0.00 in0.0 mm 0.00 in0.0 mm 0.00 in0.0 mm
01:00 AM 59.4°F15.2°C 56.4°F13.6°C 90% 0.6 mph N1.0 kmh N 4.7 mph7.6 kmh 29.86 in1011.2 mb 0.00 in0.0 mm 0.00 in0.0 mm 0.00 in0.0 mm
01:15 AM 59.0°F15.0°C 56.1°F13.4°C 90% 1.0 mph N1.6 kmh N 5.7 mph9.2 kmh 29.86 in1011.2 mb 0.23 in5.8 mm 0.92 in23.4 mm 0.23 in5.8 mm
01:30 AM 58.6°F14.8°C 55.7°F13.2°C 90% 0.3 mph N0.5 kmh N 3.9 mph6.3 kmh 29.83 in1010.2 mb 0.23 in5.8 mm 0.00 in0.0 mm 0.23 in5.8 mm
01:45 AM 58.6°F14.8°C 56.0°F13.3°C 91% Calm Calm -- 29.83 in1010.2 mb 0.23 in5.8 mm 0.00 in0.0 mm 0.23 in5.8 mm
02:00 AM 58.3°F14.6°C 56.0°F13.3°C 92% 0.3 mph W0.5 kmh W 3.6 mph5.8 kmh 29.83 in1010.2 mb 0.23 in5.8 mm 0.00 in0.0 mm 0.23 in5.8 mm
02:15 AM 57.9°F14.4°C 55.6°F13.1°C 92% 2.5 mph N4.0 kmh N 6.8 mph10.9 kmh 29.83 in1010.2 mb 0.04 in1.0 mm 0.00 in0.0 mm 0.27 in6.9 mm
02:30 AM 57.9°F14.4°C 55.9°F13.3°C 93% Calm Calm -- 29.83 in1010.2 mb 0.04 in1.0 mm 0.00 in0.0 mm 0.27 in6.9 mm
02:45 AM 57.7°F14.3°C 55.7°F13.2°C 93% 0.7 mph N1.1 kmh N 3.9 mph6.3 kmh 29.83 in1010.2 mb 0.04 in1.0 mm 0.00 in0.0 mm 0.27 in6.9 mm
03:00 AM 57.9°F14.4°C 56.2°F13.4°C 94% 0.8 mph E1.3 kmh E 4.3 mph6.9 kmh 29.83 in1010.2 mb 0.04 in1.0 mm 0.00 in0.0 mm 0.27 in6.9 mm
03:15 AM 57.7°F14.3°C 56.0°F13.3°C 94% 3.5 mph E5.6 kmh E 6.8 mph10.9 kmh 29.83 in1010.2 mb 0.00 in0.0 mm 0.00 in0.0 mm 0.27 in6.9 mm
03:30 AM 57.6°F14.2°C 55.8°F13.2°C 94% 0.6 mph E1.0 kmh E 6.4 mph10.3 kmh 29.83 in1010.2 mb 0.00 in0.0 mm 0.00 in0.0 mm 0.27 in6.9 mm
03:45 AM 57.6°F14.2°C 55.8°F13.2°C 94% 4.1 mph E6.6 kmh E 9.3 mph15.0 kmh 29.80 in1009.1 mb 0.00 in0.0 mm 0.00 in0.0 mm 0.27 in6.9 mm
04:00 AM 57.4°F14.1°C 55.7°F13.2°C 94% 6.1 mph E9.8 kmh E 13.6 mph21.9 kmh 29.80 in1009.1 mb 0.00 in0.0 mm 0.00 in0.0 mm 0.27 in6.9 mm
04:15 AM 57.2°F14.0°C 55.5°F13.1°C 94% 4.6 mph E7.4 kmh E 12.2 mph19.6 kmh 29.77 in1008.1 mb 0.00 in0.0 mm 0.00 in0.0 mm 0.27 in6.9 mm
04:30 AM 57.0°F13.9°C 55.3°F12.9°C 94% 3.9 mph E6.3 kmh E 6.8 mph10.9 kmh 29.77 in1008.1 mb 0.00 in0.0 mm 0.00 in0.0 mm 0.27 in6.9 mm
04:45 AM 57.0°F13.9°C 55.6°F13.1°C 95% 3.8 mph ESE6.1 kmh ESE 10.0 mph16.1 kmh 29.80 in1009.1 mb 0.00 in0.0 mm 0.00 in0.0 mm 0.27 in6.9 mm
05:00 AM 57.0°F13.9°C 55.6°F13.1°C 95% 5.4 mph ESE8.7 kmh ESE 10.0 mph16.1 kmh 29.77 in1008.1 mb 0.00 in0.0 mm 0.00 in0.0 mm 0.27 in6.9 mm
05:15 AM 57.0°F13.9°C 55.6°F13.1°C 95% 4.9 mph E7.9 kmh E 8.6 mph13.8 kmh 29.77 in1008.1 mb 0.00 in0.0 mm 0.00 in0.0 mm 0.27 in6.9 mm
05:30 AM 56.8°F13.8°C 55.4°F13.0°C 95% 3.1 mph ESE5.0 kmh ESE 6.4 mph10.3 kmh 29.80 in1009.1 mb 0.00 in0.0 mm 0.00 in0.0 mm 0.27 in6.9 mm
05:45 AM 56.8°F13.8°C 55.4°F13.0°C 95% 2.1 mph E3.4 kmh E 5.0 mph8.0 kmh 29.80 in1009.1 mb 0.00 in0.0 mm 0.00 in0.0 mm 0.27 in6.9 mm
06:00 AM 57.0°F13.9°C 55.9°F13.3°C 96% 4.2 mph E6.8 kmh E 7.9 mph12.7 kmh 29.80 in1009.1 mb 0.00 in0.0 mm 0.00 in0.0 mm 0.27 in6.9 mm
06:15 AM 57.2°F14.0°C 56.1°F13.4°C 96% 0.1 mph ENE0.2 kmh ENE 1.8 mph2.9 kmh 29.80 in1009.1 mb 0.00 in0.0 mm 0.00 in0.0 mm 0.27 in6.9 mm
06:30 AM 57.2°F14.0°C 55.8°F13.2°C 95% 1.7 mph NNW2.7 kmh NNW 10.0 mph16.1 kmh 29.77 in1008.1 mb 0.04 in1.0 mm 0.16 in4.1 mm 0.32 in8.1 mm
06:45 AM 57.2°F14.0°C 56.1°F13.4°C 96% 0.6 mph W1.0 kmh W 2.5 mph4.0 kmh 29.80 in1009.1 mb 0.09 in2.3 mm 0.20 in5.1 mm 0.36 in9.1 mm
07:00 AM 57.2°F14.0°C 56.1°F13.4°C 96% Calm Calm 1.8 mph2.9 kmh 29.80 in1009.1 mb 0.09 in2.3 mm 0.00 in0.0 mm 0.36 in9.1 mm
07:15 AM 57.4°F14.1°C 56.2°F13.4°C 96% Calm Calm -- 29.80 in1009.1 mb 0.13 in3.3 mm 0.16 in4.1 mm 0.41 in10.4 mm
07:30 AM 57.6°F14.2°C 56.4°F13.6°C 96% Calm Calm -- 29.80 in1009.1 mb 0.09 in2.3 mm 0.00 in0.0 mm 0.41 in10.4 mm
07:45 AM 57.9°F14.4°C 56.8°F13.8°C 96% 0.4 mph W0.6 kmh W 2.5 mph4.0 kmh 29.80 in1009.1 mb 0.04 in1.0 mm 0.00 in0.0 mm 0.41 in10.4 mm
08:00 AM 58.1°F14.5°C 57.0°F13.9°C 96% 1.0 mph NW1.6 kmh NW 5.0 mph8.0 kmh 29.83 in1010.2 mb 0.04 in1.0 mm 0.00 in0.0 mm 0.41 in10.4 mm
08:15 AM 57.9°F14.4°C 56.5°F13.6°C 95% 1.0 mph W1.6 kmh W 3.9 mph6.3 kmh 29.80 in1009.1 mb 0.00 in0.0 mm 0.00 in0.0 mm 0.41 in10.4 mm
08:45 AM 57.9°F14.4°C 56.2°F13.4°C 94% Calm Calm -- 29.83 in1010.2 mb 0.00 in0.0 mm 0.00 in0.0 mm 0.41 in10.4 mm
09:00 AM 58.1°F14.5°C 56.4°F13.6°C 94% Calm Calm -- 29.80 in1009.1 mb 0.00 in0.0 mm 0.00 in0.0 mm 0.41 in10.4 mm
09:15 AM 58.8°F14.9°C 57.1°F13.9°C 94% 1.5 mph N2.4 kmh N 4.7 mph7.6 kmh 29.80 in1009.1 mb 0.00 in0.0 mm 0.00 in0.0 mm 0.41 in10.4 mm
09:30 AM 59.9°F15.5°C 58.5°F14.7°C 95% 1.6 mph N2.6 kmh N 6.1 mph9.8 kmh 29.83 in1010.2 mb 0.00 in0.0 mm 0.00 in0.0 mm 0.41 in10.4 mm
09:45 AM 60.8°F16.0°C 59.1°F15.1°C 94% 3.5 mph N5.6 kmh N 9.7 mph15.6 kmh 29.83 in1010.2 mb 0.00 in0.0 mm 0.00 in0.0 mm 0.41 in10.4 mm
10:00 AM 61.5°F16.4°C 58.9°F14.9°C 91% 4.0 mph N6.4 kmh N 8.6 mph13.8 kmh 29.83 in1010.2 mb 0.00 in0.0 mm 0.00 in0.0 mm 0.41 in10.4 mm
10:15 AM 62.4°F16.9°C 59.1°F15.1°C 89% 5.8 mph N9.3 kmh N 11.5 mph18.5 kmh 29.83 in1010.2 mb 0.00 in0.0 mm 0.00 in0.0 mm 0.41 in10.4 mm
10:30 AM 63.0°F17.2°C 59.0°F15.0°C 87% 2.3 mph N3.7 kmh N 7.9 mph12.7 kmh 29.83 in1010.2 mb 0.00 in0.0 mm 0.00 in0.0 mm 0.41 in10.4 mm
10:45 AM 63.3°F17.4°C 58.4°F14.7°C 84% 2.5 mph N4.0 kmh N 9.7 mph15.6 kmh 29.83 in1010.2 mb 0.00 in0.0 mm 0.00 in0.0 mm 0.41 in10.4 mm
11:00 AM 63.9°F17.7°C 57.9°F14.4°C 81% 1.8 mph N2.9 kmh N 4.7 mph7.6 kmh 29.83 in1010.2 mb 0.00 in0.0 mm 0.00 in0.0 mm 0.41 in10.4 mm
11:15 AM 64.4°F18.0°C 58.4°F14.7°C 81% 1.1 mph NNE1.8 kmh NNE 1.4 mph2.3 kmh 29.83 in1010.2 mb 0.00 in0.0 mm 0.00 in0.0 mm 0.41 in10.4 mm
11:30 AM 64.4°F18.0°C 57.7°F14.3°C 79% 1.2 mph NNE1.9 kmh NNE 1.4 mph2.3 kmh 29.83 in1010.2 mb 0.00 in0.0 mm 0.00 in0.0 mm 0.41 in10.4 mm
11:45 AM 63.7°F17.6°C 57.4°F14.1°C 80% 1.2 mph NNE1.9 kmh NNE 1.4 mph2.3 kmh 29.83 in1010.2 mb 0.00 in0.0 mm 0.00 in0.0 mm 0.41 in10.4 mm
12:00 PM 65.3°F18.5°C 59.3°F15.2°C 81% 1.5 mph S2.4 kmh S 5.7 mph9.2 kmh 29.83 in1010.2 mb 0.00 in0.0 mm 0.00 in0.0 mm 0.41 in10.4 mm
12:15 PM 64.6°F18.1°C 58.3°F14.6°C 80% 1.7 mph WNW2.7 kmh WNW 6.4 mph10.3 kmh 29.83 in1010.2 mb 0.06 in1.5 mm 0.24 in6.1 mm 0.46 in11.7 mm
12:30 PM 63.7°F17.6°C 58.4°F14.7°C 83% 1.5 mph W2.4 kmh W 4.7 mph7.6 kmh 29.83 in1010.2 mb 0.19 in4.8 mm 0.52 in13.2 mm 0.59 in15.0 mm
12:45 PM 64.0°F17.8°C 59.4°F15.2°C 85% 0.3 mph W0.5 kmh W 3.2 mph5.1 kmh 29.86 in1011.2 mb 0.19 in4.8 mm 0.00 in0.0 mm 0.59 in15.0 mm
01:00 PM 64.4°F18.0°C 59.5°F15.3°C 84% 1.5 mph W2.4 kmh W 5.0 mph8.0 kmh 29.86 in1011.2 mb 0.19 in4.8 mm 0.00 in0.0 mm 0.59 in15.0 mm
01:15 PM 64.8°F18.2°C 60.1°F15.6°C 85% 2.1 mph WNW3.4 kmh WNW 7.5 mph12.1 kmh 29.86 in1011.2 mb 0.10 in2.5 mm 0.00 in0.0 mm 0.59 in15.0 mm
01:30 PM 64.4°F18.0°C 59.5°F15.3°C 84% 4.0 mph W6.4 kmh W 10.4 mph16.7 kmh 29.86 in1011.2 mb 0.00 in0.0 mm 0.00 in0.0 mm 0.59 in15.0 mm
01:45 PM 64.2°F17.9°C 59.6°F15.3°C 85% 1.6 mph W2.6 kmh W 6.4 mph10.3 kmh 29.89 in1012.2 mb 0.00 in0.0 mm 0.00 in0.0 mm 0.59 in15.0 mm
02:00 PM 64.6°F18.1°C 59.3°F15.2°C 83% 3.9 mph WNW6.3 kmh WNW 11.5 mph18.5 kmh 29.89 in1012.2 mb 0.00 in0.0 mm 0.00 in0.0 mm 0.59 in15.0 mm
02:15 PM 64.0°F17.8°C 59.1°F15.1°C 84% 1.7 mph W2.7 kmh W 6.1 mph9.8 kmh 29.83 in1010.2 mb 0.00 in0.0 mm 0.00 in0.0 mm 0.59 in15.0 mm
02:30 PM 64.2°F17.9°C 58.9°F14.9°C 83% 3.6 mph N5.8 kmh N 11.8 mph19.0 kmh 29.86 in1011.2 mb 0.00 in0.0 mm 0.00 in0.0 mm 0.59 in15.0 mm
02:45 PM 65.5°F18.6°C 58.8°F14.9°C 79% 4.6 mph NNW7.4 kmh NNW 12.5 mph20.1 kmh 29.83 in1010.2 mb 0.00 in0.0 mm 0.00 in0.0 mm 0.59 in15.0 mm
03:00 PM 65.5°F18.6°C 58.1°F14.5°C 77% 4.2 mph N6.8 kmh N 12.2 mph19.6 kmh 29.86 in1011.2 mb 0.00 in0.0 mm 0.00 in0.0 mm 0.59 in15.0 mm
03:15 PM 64.8°F18.2°C 57.0°F13.9°C 76% 5.4 mph N8.7 kmh N 12.2 mph19.6 kmh 29.86 in1011.2 mb 0.00 in0.0 mm 0.00 in0.0 mm 0.59 in15.0 mm
03:30 PM 64.4°F18.0°C 57.0°F13.9°C 77% 2.6 mph NNW4.2 kmh NNW 7.5 mph12.1 kmh 29.86 in1011.2 mb 0.00 in0.0 mm 0.00 in0.0 mm 0.59 in15.0 mm
03:45 PM 64.4°F18.0°C 57.4°F14.1°C 78% 1.2 mph NW1.9 kmh NW 4.7 mph7.6 kmh 29.89 in1012.2 mb 0.00 in0.0 mm 0.00 in0.0 mm 0.59 in15.0 mm
04:00 PM 63.1°F17.3°C 56.5°F13.6°C 79% 2.7 mph NW4.3 kmh NW 8.6 mph13.8 kmh 29.89 in1012.2 mb 0.00 in0.0 mm 0.00 in0.0 mm 0.59 in15.0 mm
04:15 PM 63.0°F17.2°C 57.0°F13.9°C 81% 0.6 mph WNW1.0 kmh WNW 3.6 mph5.8 kmh 29.89 in1012.2 mb 0.00 in0.0 mm 0.00 in0.0 mm 0.59 in15.0 mm
04:31 PM 63.3°F17.4°C 57.7°F14.3°C 82% 0.1 mph W0.2 kmh W 3.2 mph5.1 kmh 29.89 in1012.2 mb 0.00 in0.0 mm 0.00 in0.0 mm 0.59 in15.0 mm
04:45 PM 63.5°F17.5°C 58.2°F14.6°C 83% 0.2 mph S0.3 kmh S 3.6 mph5.8 kmh 29.89 in1012.2 mb 0.00 in0.0 mm 0.00 in0.0 mm 0.59 in15.0 mm
05:00 PM 64.0°F17.8°C 58.8°F14.9°C 83% 1.4 mph NW2.3 kmh NW 5.4 mph8.7 kmh 29.89 in1012.2 mb 0.00 in0.0 mm 0.00 in0.0 mm 0.59 in15.0 mm
05:15 PM 64.6°F18.1°C 58.6°F14.8°C 81% 3.4 mph W5.5 kmh W 9.7 mph15.6 kmh 29.89 in1012.2 mb 0.00 in0.0 mm 0.00 in0.0 mm 0.59 in15.0 mm
05:30 PM 64.2°F17.9°C 58.3°F14.6°C 81% 2.8 mph WNW4.5 kmh WNW 10.0 mph16.1 kmh 29.89 in1012.2 mb 0.00 in0.0 mm 0.00 in0.0 mm 0.59 in15.0 mm
05:45 PM 63.3°F17.4°C 56.7°F13.7°C 79% 5.4 mph N8.7 kmh N 10.4 mph16.7 kmh 29.92 in1013.2 mb 0.00 in0.0 mm 0.00 in0.0 mm 0.59 in15.0 mm
06:00 PM 62.2°F16.8°C 56.3°F13.5°C 81% 1.4 mph NNW2.3 kmh NNW 5.7 mph9.2 kmh 29.92 in1013.2 mb 0.00 in0.0 mm 0.00 in0.0 mm 0.59 in15.0 mm
06:15 PM 61.7°F16.5°C 56.5°F13.6°C 83% 1.7 mph N2.7 kmh N 5.7 mph9.2 kmh 29.95 in1014.2 mb 0.00 in0.0 mm 0.00 in0.0 mm 0.59 in15.0 mm
06:30 PM 61.3°F16.3°C 56.5°F13.6°C 84% Calm Calm -- 29.92 in1013.2 mb 0.00 in0.0 mm 0.00 in0.0 mm 0.59 in15.0 mm
06:45 PM 61.2°F16.2°C 56.6°F13.7°C 85% Calm Calm -- 29.92 in1013.2 mb 0.00 in0.0 mm 0.00 in0.0 mm 0.59 in15.0 mm
07:00 PM 60.6°F15.9°C 56.4°F13.6°C 86% Calm Calm -- 29.92 in1013.2 mb 0.00 in0.0 mm 0.00 in0.0 mm 0.59 in15.0 mm
07:15 PM 60.3°F15.7°C 56.4°F13.6°C 87% Calm Calm -- 29.89 in1012.2 mb 0.00 in0.0 mm 0.00 in0.0 mm 0.59 in15.0 mm
07:30 PM 60.1°F15.6°C 56.8°F13.8°C 89% Calm Calm -- 29.92 in1013.2 mb 0.00 in0.0 mm 0.00 in0.0 mm 0.59 in15.0 mm
07:45 PM 59.4°F15.2°C 56.1°F13.4°C 89% Calm Calm -- 29.92 in1013.2 mb 0.00 in0.0 mm 0.00 in0.0 mm 0.59 in15.0 mm
08:00 PM 58.6°F14.8°C 55.4°F13.0°C 89% Calm Calm -- 29.92 in1013.2 mb 0.00 in0.0 mm 0.00 in0.0 mm 0.59 in15.0 mm
08:15 PM 57.9°F14.4°C 54.7°F12.6°C 89% Calm Calm -- 29.92 in1013.2 mb 0.00 in0.0 mm 0.00 in0.0 mm 0.59 in15.0 mm
08:30 PM 57.6°F14.2°C 54.6°F12.6°C 90% 0.1 mph S0.2 kmh S 3.2 mph5.1 kmh 29.95 in1014.2 mb 0.00 in0.0 mm 0.00 in0.0 mm 0.59 in15.0 mm
08:45 PM 57.2°F14.0°C 54.3°F12.4°C 90% Calm Calm -- 29.95 in1014.2 mb 0.00 in0.0 mm 0.00 in0.0 mm 0.59 in15.0 mm
09:00 PM 57.0°F13.9°C 54.4°F12.4°C 91% Calm Calm -- 29.95 in1014.2 mb 0.00 in0.0 mm 0.00 in0.0 mm 0.59 in15.0 mm
09:15 PM 56.5°F13.6°C 53.6°F12.0°C 90% Calm Calm -- 29.95 in1014.2 mb 0.00 in0.0 mm 0.00 in0.0 mm 0.59 in15.0 mm
09:30 PM 56.3°F13.5°C 53.7°F12.1°C 91% 0.2 mph E0.3 kmh E 3.2 mph5.1 kmh 29.95 in1014.2 mb 0.00 in0.0 mm 0.00 in0.0 mm 0.59 in15.0 mm
09:45 PM 56.1°F13.4°C 53.8°F12.1°C 92% 0.4 mph E0.6 kmh E 3.2 mph5.1 kmh 29.98 in1015.2 mb 0.00 in0.0 mm 0.00 in0.0 mm 0.59 in15.0 mm
10:00 PM 55.9°F13.3°C 53.6°F12.0°C 92% 1.7 mph E2.7 kmh E 4.3 mph6.9 kmh 29.98 in1015.2 mb 0.00 in0.0 mm 0.00 in0.0 mm 0.59 in15.0 mm
10:15 PM 56.1°F13.4°C 54.1°F12.3°C 93% Calm Calm 1.4 mph2.3 kmh 29.98 in1015.2 mb 0.00 in0.0 mm 0.00 in0.0 mm 0.59 in15.0 mm
10:30 PM 56.5°F13.6°C 54.8°F12.7°C 94% 0.6 mph E1.0 kmh E 4.3 mph6.9 kmh 29.98 in1015.2 mb 0.00 in0.0 mm 0.00 in0.0 mm 0.59 in15.0 mm
10:45 PM 56.5°F13.6°C 54.8°F12.7°C 94% 3.4 mph E5.5 kmh E 6.1 mph9.8 kmh 29.98 in1015.2 mb 0.00 in0.0 mm 0.00 in0.0 mm 0.59 in15.0 mm
11:00 PM 56.5°F13.6°C 54.8°F12.7°C 94% 3.7 mph SE6.0 kmh SE 5.7 mph9.2 kmh 29.98 in1015.2 mb 0.00 in0.0 mm 0.00 in0.0 mm 0.55 in14.0 mm
11:15 PM 56.7°F13.7°C 55.0°F12.8°C 94% 4.1 mph ESE6.6 kmh ESE 7.2 mph11.6 kmh 29.98 in1015.2 mb 0.00 in0.0 mm 0.00 in0.0 mm 0.55 in14.0 mm
11:30 PM 56.8°F13.8°C 55.1°F12.8°C 94% 3.8 mph E6.1 kmh E 6.4 mph10.3 kmh 29.98 in1015.2 mb 0.00 in0.0 mm 0.00 in0.0 mm 0.55 in14.0 mm
11:45 PM 56.8°F13.8°C 55.4°F13.0°C 95% 3.5 mph E5.6 kmh E 6.8 mph10.9 kmh 29.95 in1014.2 mb 0.00 in0.0 mm 0.00 in0.0 mm 0.55 in14.0 mm